Time;durP1;ratioP1;P1;durP2;ratioP2;P2;SDS_P1;SDS_P2;PMS_P1;PMS_P2;Temp;Humidity;BMP_temperature;BMP_pressure;BME280_temperature;BME280_humidity;BME280_pressure;Samples;Min_cycle;Max_cycle;Signal;HPM_P1;HPM_P2
2020/12/29 00:04:49;;;;;;;189.62;163.30;;;19.60;47.30;;;;;;4800517;54;21007;-20
2020/12/29 00:09:50;;;;;;;191.20;165.43;;;19.60;47.40;;;;;;4798208;54;21582;-22
2020/12/29 00:14:51;;;;;;;185.15;160.45;;;19.60;47.30;;;;;;4844236;54;21075;-30
2020/12/29 00:19:52;;;;;;;179.77;155.52;;;19.60;47.40;;;;;;4811009;54;21003;-25
2020/12/29 00:24:53;;;;;;;181.68;158.35;;;19.60;47.30;;;;;;4796880;54;21541;-24
2020/12/29 00:29:54;;;;;;;176.50;153.32;;;19.60;47.60;;;;;;4830495;54;21039;-21
2020/12/29 00:34:55;;;;;;;177.27;155.52;;;19.60;47.50;;;;;;4795019;58;21664;-30
2020/12/29 00:39:56;;;;;;;170.35;148.15;;;19.60;47.50;;;;;;4813546;54;21886;-27
2020/12/29 00:44:57;;;;;;;169.75;144.85;;;19.60;48.10;;;;;;4813058;54;21095;-27
2020/12/29 00:49:57;;;;;;;165.98;142.55;;;19.60;47.50;;;;;;4803901;54;21979;-32
2020/12/29 00:54:58;;;;;;;166.82;145.05;;;19.60;47.50;;;;;;4805735;54;21018;-32
2020/12/29 00:59:59;;;;;;;158.68;139.95;;;19.60;48.10;;;;;;4815230;54;21051;-31
2020/12/29 01:05:00;;;;;;;158.75;137.12;;;19.60;47.50;;;;;;4794872;58;21003;-27
2020/12/29 01:10:01;;;;;;;157.80;140.37;;;19.60;47.60;;;;;;4838587;54;22178;-26
2020/12/29 01:15:02;;;;;;;156.55;135.43;;;19.60;47.50;;;;;;4813015;54;21094;-26
2020/12/29 01:20:03;;;;;;;151.48;133.98;;;19.60;47.50;;;;;;4830698;54;21058;-24
2020/12/29 01:25:04;;;;;;;157.60;138.85;;;19.60;47.50;;;;;;4816218;54;21597;-31
2020/12/29 01:30:05;;;;;;;149.05;131.90;;;19.60;47.60;;;;;;4797372;54;21063;-28
2020/12/29 01:35:06;;;;;;;148.48;132.12;;;19.60;47.60;;;;;;4818875;54;21050;-27
2020/12/29 01:40:10;;;;;;;141.05;125.55;;;19.60;47.50;;;;;;4799922;54;21003;-26
2020/12/29 01:45:14;;;;;;;140.00;123.62;;;19.60;47.60;;;;;;4809824;54;21075;-28
2020/12/29 01:50:20;;;;;;;141.57;122.15;;;19.60;47.40;;;;;;4806229;54;21086;-30
2020/12/29 01:55:21;;;;;;;136.93;121.53;;;19.60;47.60;;;;;;4805448;54;21043;-19
2020/12/29 02:00:23;;;;;;;140.25;124.90;;;19.60;47.50;;;;;;4795764;54;21501;-28
2020/12/29 02:05:27;;;;;;;134.50;118.20;;;19.60;47.60;;;;;;4812590;54;21026;-31
2020/12/29 02:10:28;;;;;;;133.43;118.78;;;19.60;47.50;;;;;;4814930;54;21106;-24
2020/12/29 02:15:30;;;;;;;130.85;116.12;;;19.60;47.60;;;;;;4815727;54;20990;-22
2020/12/29 02:20:30;;;;;;;130.20;115.25;;;19.60;47.70;;;;;;4819195;54;21465;-21
2020/12/29 02:25:31;;;;;;;127.38;112.62;;;19.60;47.50;;;;;;4843774;54;21034;-21
2020/12/29 02:30:33;;;;;;;127.53;109.87;;;19.60;47.50;;;;;;4816649;54;21883;-25
2020/12/29 02:35:34;;;;;;;124.70;110.90;;;19.60;47.50;;;;;;4837988;54;21964;-31
2020/12/29 02:40:34;;;;;;;123.05;108.72;;;19.60;47.50;;;;;;4799884;54;21015;-29
2020/12/29 02:45:35;;;;;;;124.12;110.35;;;19.60;47.50;;;;;;4812775;54;22316;-24
2020/12/29 02:50:36;;;;;;;119.00;104.53;;;19.60;47.60;;;;;;4794162;58;21091;-24
2020/12/29 02:55:37;;;;;;;114.97;102.10;;;19.60;47.50;;;;;;4806670;54;21462;-26
2020/12/29 03:00:38;;;;;;;115.30;102.70;;;19.60;47.50;;;;;;4815772;54;21047;-26
2020/12/29 03:05:38;;;;;;;115.95;103.20;;;19.60;47.50;;;;;;4797128;54;21493;-23
2020/12/29 03:10:39;;;;;;;114.82;102.18;;;19.60;47.60;;;;;;4814870;54;21031;-24
2020/12/29 03:15:40;;;;;;;115.00;102.40;;;19.60;47.50;;;;;;4817488;54;21007;-30
2020/12/29 03:20:41;;;;;;;112.07;99.85;;;19.60;47.70;;;;;;4847807;54;21000;-23
2020/12/29 03:25:42;;;;;;;110.65;98.47;;;19.60;47.60;;;;;;4802722;54;20987;-25
2020/12/29 03:30:43;;;;;;;108.18;96.15;;;19.60;47.60;;;;;;4799648;54;21560;-21
2020/12/29 03:35:43;;;;;;;104.30;92.90;;;19.60;47.60;;;;;;4806784;54;21458;-22
2020/12/29 03:40:44;;;;;;;102.78;90.25;;;19.60;47.60;;;;;;4796479;54;21003;-21
2020/12/29 03:45:47;;;;;;;104.80;93.35;;;19.60;47.60;;;;;;4810629;54;21070;-25
2020/12/29 03:50:49;;;;;;;100.35;89.32;;;19.60;47.70;;;;;;4794926;55;21035;-24
2020/12/29 03:55:49;;;;;;;100.87;89.87;;;19.60;48.10;;;;;;4820583;54;20995;-29
2020/12/29 04:00:50;;;;;;;98.00;87.22;;;19.60;47.50;;;;;;4811891;54;21944;-24
2020/12/29 04:05:51;;;;;;;97.88;87.20;;;19.50;47.50;;;;;;4812674;54;20990;-26
2020/12/29 04:10:52;;;;;;;96.63;86.10;;;19.60;47.60;;;;;;4817320;54;21553;-21
2020/12/29 04:15:53;;;;;;;97.32;85.75;;;19.60;47.50;;;;;;4819475;54;21001;-21
2020/12/29 04:20:54;;;;;;;91.28;81.22;;;19.50;47.60;;;;;;4804854;54;21682;-23
2020/12/29 04:25:56;;;;;;;95.78;85.30;;;19.60;47.50;;;;;;4808782;54;21063;-22
2020/12/29 04:30:59;;;;;;;94.90;84.57;;;19.50;47.50;;;;;;4853830;54;22192;-21
2020/12/29 04:36:00;;;;;;;94.50;84.10;;;19.60;47.60;;;;;;4832227;54;21046;-27
2020/12/29 04:41:01;;;;;;;89.32;79.57;;;19.60;47.70;;;;;;4841048;54;21006;-28
2020/12/29 04:46:04;;;;;;;89.03;78.57;;;19.50;47.40;;;;;;4815711;54;21121;-29
2020/12/29 04:51:07;;;;;;;92.90;81.50;;;19.60;47.60;;;;;;4804034;54;21031;-27
2020/12/29 04:56:09;;;;;;;86.30;76.80;;;19.60;47.70;;;;;;4816044;54;21009;-31
2020/12/29 05:01:11;;;;;;;84.03;74.82;;;19.50;47.50;;;;;;4812381;54;21011;-26
2020/12/29 05:06:12;;;;;;;82.43;73.12;;;19.60;47.60;;;;;;4815955;54;21050;-32
2020/12/29 05:11:14;;;;;;;85.18;74.85;;;19.60;47.60;;;;;;4801609;54;21023;-29
2020/12/29 05:16:16;;;;;;;80.38;71.60;;;19.50;47.60;;;;;;4809548;54;21495;-31
2020/12/29 05:21:18;;;;;;;83.78;73.37;;;19.60;47.70;;;;;;4802395;54;21067;-27
2020/12/29 05:26:19;;;;;;;79.90;71.10;;;19.60;47.70;;;;;;4841418;54;20999;-25
2020/12/29 05:31:21;;;;;;;76.22;66.43;;;19.50;47.70;;;;;;4800679;54;21074;-19
2020/12/29 05:36:22;;;;;;;78.85;70.18;;;19.60;47.80;;;;;;4799520;54;21051;-26
2020/12/29 05:41:23;;;;;;;77.20;68.50;;;19.50;47.80;;;;;;4800127;54;21002;-28
2020/12/29 05:46:28;;;;;;;78.07;69.57;;;19.50;47.90;;;;;;4800697;54;21051;-25
2020/12/29 05:51:29;;;;;;;74.75;66.40;;;19.60;48.00;;;;;;4794047;58;21007;-30
2020/12/29 05:56:35;;;;;;;76.03;67.72;;;19.60;48.00;;;;;;4854820;54;21197;-29
2020/12/29 06:01:49;;;;;;;72.50;64.40;;;19.50;48.00;;;;;;4813362;54;21039;-27
2020/12/29 06:06:50;;;;;;;73.95;65.82;;;19.50;48.00;;;;;;4842069;54;21004;-28
2020/12/29 06:11:54;;;;;;;72.15;64.25;;;19.50;48.00;;;;;;4816522;54;21039;-27
2020/12/29 06:16:56;;;;;;;67.62;60.33;;;19.60;48.00;;;;;;4866662;54;21098;-25
2020/12/29 06:22:10;;;;;;;72.07;64.20;;;19.50;47.80;;;;;;4794791;58;21023;-23
2020/12/29 06:27:12;;;;;;;68.07;60.58;;;19.50;48.00;;;;;;4795263;58;21585;-21
2020/12/29 06:32:15;;;;;;;71.28;63.50;;;19.50;47.90;;;;;;4809212;54;21568;-19
2020/12/29 06:37:43;;;;;;;69.22;61.15;;;19.50;47.90;;;;;;4804854;54;21111;-28
2020/12/29 06:42:45;;;;;;;68.90;60.40;;;19.50;48.00;;;;;;4795154;58;21580;-22
2020/12/29 06:47:46;;;;;;;68.32;60.83;;;19.50;48.00;;;;;;4845320;54;21026;-27
2020/12/29 06:52:54;;;;;;;67.55;59.30;;;19.50;48.00;;;;;;4836448;54;20971;-19
2020/12/29 06:57:55;;;;;;;;;;;19.50;47.90;;;;;;4832136;54;21497;-27
2020/12/29 07:02:56;;;;;;;70.37;60.95;;;19.50;48.00;;;;;;4857712;54;20135;-25
2020/12/29 07:08:06;;;;;;;66.43;58.22;;;19.50;47.80;;;;;;4807152;54;21027;-28
2020/12/29 07:13:25;;;;;;;53.22;47.13;;;19.50;48.00;;;;;;4817885;54;21011;-25
2020/12/29 07:18:28;;;;;;;65.37;58.15;;;19.50;47.90;;;;;;4852457;54;21109;-22
2020/12/29 07:23:29;;;;;;;70.62;61.55;;;19.50;47.70;;;;;;4806830;54;21070;-29
2020/12/29 07:28:30;;;;;;;70.60;59.90;;;19.50;47.90;;;;;;4801221;54;21568;-26
2020/12/29 07:33:36;;;;;;;68.93;59.35;;;19.50;47.70;;;;;;4808251;54;21063;-27
2020/12/29 07:38:38;;;;;;;71.10;61.28;;;19.50;47.80;;;;;;4822228;54;21094;-28
2020/12/29 07:43:40;;;;;;;68.07;59.67;;;19.50;47.80;;;;;;4811074;54;20979;-29
2020/12/29 07:48:41;;;;;;;70.62;61.88;;;19.50;47.80;;;;;;4795032;58;21075;-22
2020/12/29 07:53:41;;;;;;;72.15;60.65;;;19.50;47.80;;;;;;4821677;54;21457;-30
2020/12/29 07:58:42;;;;;;;72.00;62.88;;;19.50;47.60;;;;;;4820755;54;21289;-28
2020/12/29 08:03:51;;;;;;;71.37;60.58;;;19.50;48.40;;;;;;4837622;54;20999;-21
2020/12/29 08:09:00;;;;;;;73.70;62.38;;;19.50;47.70;;;;;;4807136;54;21098;-28
2020/12/29 08:14:01;;;;;;;76.55;64.60;;;19.50;47.70;;;;;;4796430;55;21473;-26
2020/12/29 08:19:09;;;;;;;73.97;63.38;;;19.50;47.60;;;;;;4805922;54;21043;-19
2020/12/29 08:24:12;;;;;;;74.40;63.60;;;19.50;47.60;;;;;;4808736;54;20987;-22
2020/12/29 08:29:13;;;;;;;74.35;64.35;;;19.50;47.80;;;;;;4814183;54;21040;-25
2020/12/29 08:34:18;;;;;;;78.10;65.85;;;19.50;47.70;;;;;;4815500;54;21079;-21
2020/12/29 08:40:12;;;;;;;78.15;67.72;;;19.50;47.60;;;;;;4795195;58;21023;-29
2020/12/29 08:45:15;;;;;;;82.95;69.57;;;19.50;47.70;;;;;;4801571;54;20995;-26
2020/12/29 08:50:31;;;;;;;78.15;67.55;;;19.50;47.60;;;;;;4824101;54;21039;-27
2020/12/29 08:55:33;;;;;;;85.20;70.82;;;19.50;47.60;;;;;;4817968;54;21461;-33
2020/12/29 09:00:44;;;;;;;85.85;73.35;;;19.50;47.70;;;;;;4795500;58;20979;-23
2020/12/29 09:05:44;;;;;;;85.85;72.82;;;19.50;47.70;;;;;;4805088;54;21011;-25
2020/12/29 09:10:45;;;;;;;87.93;75.05;;;19.60;47.70;;;;;;4819240;54;21596;-32
2020/12/29 09:15:47;;;;;;;89.78;76.75;;;19.60;47.80;;;;;;4825487;54;21027;-29
2020/12/29 09:20:48;;;;;;;90.00;77.28;;;19.50;47.70;;;;;;4801257;54;21498;-24
2020/12/29 09:25:49;;;;;;;93.12;77.35;;;19.60;48.10;;;;;;4814253;54;21039;-27
2020/12/29 09:31:10;;;;;;;102.35;80.47;;;19.60;48.30;;;;;;4806227;54;21059;-26
2020/12/29 09:36:25;;;;;;;94.43;77.60;;;19.70;48.60;;;;;;4801300;54;21536;-29
2020/12/29 09:41:26;;;;;;;92.05;77.85;;;19.80;48.50;;;;;;4800533;54;21066;-24
2020/12/29 09:46:40;;;;;;;98.40;80.07;;;19.80;48.60;;;;;;4846258;54;21657;-25
2020/12/29 09:51:40;;;;;;;97.88;81.07;;;19.90;48.70;;;;;;4803788;54;21465;-29
2020/12/29 09:56:41;;;;;;;97.55;79.55;;;19.90;48.80;;;;;;4795085;58;21027;-24
2020/12/29 10:01:49;;;;;;;100.12;81.45;;;19.90;49.00;;;;;;4801405;54;21595;-20
2020/12/29 10:06:49;;;;;;;101.50;83.80;;;20.00;49.20;;;;;;4809140;54;21098;-33
2020/12/29 10:11:50;;;;;;;111.47;91.28;;;20.00;49.20;;;;;;4794032;58;21901;-22
2020/12/29 10:16:52;;;;;;;114.68;92.20;;;20.10;49.40;;;;;;4827742;54;20991;-22
2020/12/29 10:21:54;;;;;;;116.32;94.60;;;20.00;49.40;;;;;;4829202;54;21125;-30
2020/12/29 10:26:57;;;;;;;109.20;92.93;;;20.00;49.50;;;;;;4807375;54;21107;-30
2020/12/29 10:31:57;;;;;;;115.30;94.68;;;20.00;49.50;;;;;;4794928;58;21963;-27
2020/12/29 10:36:58;;;;;;;118.10;97.15;;;20.00;49.50;;;;;;4797598;54;21216;-30
2020/12/29 10:41:59;;;;;;;119.53;97.78;;;20.00;49.50;;;;;;4827375;54;20991;-27
2020/12/29 10:47:00;;;;;;;120.78;94.90;;;20.00;49.50;;;;;;4797801;54;21075;-29
2020/12/29 10:52:01;;;;;;;117.10;94.25;;;20.10;49.30;;;;;;4822969;54;21573;-24
2020/12/29 10:57:02;;;;;;;126.62;98.50;;;20.20;49.40;;;;;;4807804;54;21027;-26
2020/12/29 11:02:04;;;;;;;130.73;102.45;;;20.20;49.40;;;;;;4851406;54;21518;-31
2020/12/29 11:07:05;;;;;;;130.77;104.43;;;20.20;49.50;;;;;;4815219;54;21341;-28
2020/12/29 11:12:05;;;;;;;123.30;101.22;;;20.20;49.60;;;;;;4825807;54;21091;-26
2020/12/29 11:17:07;;;;;;;128.93;103.03;;;20.30;49.70;;;;;;4795146;58;21543;-22
2020/12/29 11:22:07;;;;;;;130.55;105.25;;;20.30;49.80;;;;;;4815673;54;21545;-25
2020/12/29 11:27:08;;;;;;;157.27;122.30;;;20.30;50.20;;;;;;4819123;54;21071;-29
2020/12/29 11:32:09;;;;;;;153.38;120.13;;;20.30;49.60;;;;;;4851326;54;21556;-21
2020/12/29 11:37:10;;;;;;;143.55;115.40;;;20.30;49.70;;;;;;4805910;54;21520;-22
2020/12/29 11:42:11;;;;;;;144.95;115.03;;;20.30;49.80;;;;;;4818560;54;21462;-28
2020/12/29 11:47:12;;;;;;;148.90;113.47;;;20.30;49.90;;;;;;4799067;54;21110;-29
2020/12/29 11:52:13;;;;;;;144.95;113.70;;;20.30;49.90;;;;;;4800021;54;21497;-22
2020/12/29 11:57:14;;;;;;;140.40;112.80;;;20.30;50.00;;;;;;4802870;54;20995;-21
2020/12/29 12:02:14;;;;;;;144.30;114.50;;;20.30;50.10;;;;;;4800777;54;21047;-32
2020/12/29 12:07:15;;;;;;;143.90;113.20;;;20.30;50.30;;;;;;4795291;58;21063;-29
2020/12/29 12:12:16;;;;;;;141.20;111.57;;;20.30;50.70;;;;;;4801671;54;21082;-22
2020/12/29 12:17:17;;;;;;;142.55;115.53;;;20.30;50.80;;;;;;4800137;54;21094;-22
2020/12/29 12:22:18;;;;;;;145.87;117.15;;;20.30;50.40;;;;;;4819387;54;21529;-27
2020/12/29 12:27:19;;;;;;;147.45;118.55;;;20.30;50.50;;;;;;4794928;58;21501;-30
2020/12/29 12:32:20;;;;;;;139.05;115.47;;;20.30;50.50;;;;;;4804081;54;21083;-28
2020/12/29 12:37:20;;;;;;;138.32;114.05;;;20.30;50.60;;;;;;4805047;54;22377;-24
2020/12/29 12:42:22;;;;;;;141.32;113.93;;;20.30;50.40;;;;;;4796250;55;21530;-28
2020/12/29 12:47:25;;;;;;;138.48;113.85;;;20.30;50.40;;;;;;4826803;54;21494;-26
2020/12/29 12:52:26;;;;;;;137.52;111.57;;;20.20;50.20;;;;;;4814819;54;21074;-28
2020/12/29 12:57:27;;;;;;;133.52;106.47;;;20.20;49.90;;;;;;4803333;54;21003;-25
2020/12/29 13:02:28;;;;;;;130.90;105.18;;;20.30;50.00;;;;;;4814752;54;21054;-23
2020/12/29 13:07:30;;;;;;;132.25;106.90;;;20.30;50.00;;;;;;4816323;54;21048;-23
2020/12/29 13:12:32;;;;;;;131.98;108.22;;;20.30;50.10;;;;;;4797429;54;21537;-23
2020/12/29 13:17:34;;;;;;;131.73;106.93;;;20.30;50.10;;;;;;4794970;58;21118;-22
2020/12/29 13:22:36;;;;;;;128.23;103.80;;;20.30;50.10;;;;;;4799262;54;20991;-28
2020/12/29 13:27:37;;;;;;;128.38;102.40;;;20.30;50.20;;;;;;4804081;54;21472;-19
2020/12/29 13:32:38;;;;;;;129.35;103.93;;;20.30;50.20;;;;;;4821525;54;21015;-23
2020/12/29 13:37:39;;;;;;;134.23;105.57;;;20.40;50.30;;;;;;4798296;54;20999;-23
2020/12/29 13:42:45;;;;;;;132.23;106.20;;;20.40;50.30;;;;;;4819692;54;21517;-23
2020/12/29 13:47:46;;;;;;;127.57;99.50;;;20.40;50.40;;;;;;4844637;54;21470;-28
2020/12/29 13:52:49;;;;;;;127.30;103.62;;;20.40;50.40;;;;;;4818920;54;21008;-25
2020/12/29 13:57:50;;;;;;;126.07;101.95;;;20.40;50.40;;;;;;4824772;54;21059;-22
2020/12/29 14:02:50;;;;;;;123.30;99.50;;;20.40;50.60;;;;;;4840590;54;21486;-28
2020/12/29 14:07:54;;;;;;;124.72;101.62;;;20.40;50.50;;;;;;4808793;54;21011;-23
2020/12/29 14:12:55;;;;;;;127.90;101.97;;;20.50;50.70;;;;;;4811833;54;21024;-26
2020/12/29 14:17:58;;;;;;;130.50;102.22;;;20.50;50.70;;;;;;4871014;54;21461;-25
2020/12/29 14:22:59;;;;;;;118.15;97.20;;;20.50;50.60;;;;;;4793954;58;21011;-24
2020/12/29 14:28:02;;;;;;;121.75;100.45;;;20.50;50.70;;;;;;4805191;54;21469;-22
2020/12/29 14:33:04;;;;;;;190.07;149.82;;;20.50;50.80;;;;;;4813938;54;21071;-25
2020/12/29 14:38:04;;;;;;;459.90;409.13;;;20.50;51.30;;;;;;4821066;54;21059;-29
2020/12/29 14:43:05;;;;;;;480.95;428.55;;;20.40;51.40;;;;;;4839684;54;21486;-28
2020/12/29 14:48:06;;;;;;;469.88;418.83;;;20.40;51.60;;;;;;4827443;54;21046;-25
2020/12/29 14:53:08;;;;;;;460.60;410.37;;;20.40;51.80;;;;;;4824346;54;20988;-24
2020/12/29 14:58:09;;;;;;;630.53;563.87;;;20.40;51.90;;;;;;4794459;54;20996;-21
2020/12/29 15:03:10;;;;;;;756.22;675.83;;;20.40;51.90;;;;;;4821656;54;21540;-27
2020/12/29 15:08:11;;;;;;;704.83;630.58;;;20.40;52.10;;;;;;4794453;54;21497;-28
2020/12/29 15:13:12;;;;;;;701.13;627.83;;;20.40;52.00;;;;;;4794197;54;20987;-30
2020/12/29 15:18:17;;;;;;;694.55;621.75;;;20.40;52.20;;;;;;4798878;54;21059;-27
2020/12/29 15:23:18;;;;;;;677.55;606.37;;;20.40;52.20;;;;;;4812985;54;21553;-23
2020/12/29 15:28:20;;;;;;;679.33;609.15;;;20.40;52.20;;;;;;4896506;54;21093;-23
2020/12/29 15:33:21;;;;;;;750.55;668.90;;;20.40;52.30;;;;;;4820955;54;21058;-25
2020/12/29 15:38:23;;;;;;;805.15;717.20;;;20.40;52.30;;;;;;4844700;54;20980;-23
2020/12/29 15:43:23;;;;;;;822.15;733.47;;;20.40;52.40;;;;;;4816276;54;21117;-25
2020/12/29 15:48:24;;;;;;;808.08;720.47;;;20.40;52.40;;;;;;4826111;54;21595;-21
2020/12/29 15:53:25;;;;;;;800.42;713.85;;;20.40;52.40;;;;;;4800954;54;21011;-22
2020/12/29 15:58:26;;;;;;;793.83;707.83;;;20.30;52.50;;;;;;4857340;54;21533;-24
2020/12/29 16:03:30;;;;;;;790.00;704.80;;;20.40;52.50;;;;;;4824167;54;21076;-22
2020/12/29 16:08:31;;;;;;;789.90;704.47;;;20.40;52.50;;;;;;4812066;54;21089;-27
2020/12/29 16:13:32;;;;;;;796.08;709.35;;;20.40;52.50;;;;;;4794568;55;21490;-21
2020/12/29 16:18:33;;;;;;;908.58;793.10;;;20.40;52.50;;;;;;4812411;54;21118;-28
2020/12/29 16:23:34;;;;;;;851.10;756.03;;;20.40;52.60;;;;;;4804343;54;21545;-23
2020/12/29 16:28:36;;;;;;;842.35;749.38;;;20.50;52.60;;;;;;4801667;54;21062;-24
2020/12/29 16:33:37;;;;;;;851.35;758.17;;;20.40;52.00;;;;;;4837539;54;21552;-30
2020/12/29 16:38:41;;;;;;;853.72;759.95;;;20.40;52.00;;;;;;4814074;54;21003;-24
2020/12/29 16:43:45;;;;;;;849.40;756.05;;;20.30;52.00;;;;;;4805010;54;21564;-22
2020/12/29 16:48:45;;;;;;;845.35;752.10;;;20.30;52.00;;;;;;4795388;58;21576;-25
2020/12/29 16:53:46;;;;;;;840.80;748.60;;;20.30;52.00;;;;;;4802601;54;20995;-24
2020/12/29 16:58:47;;;;;;;835.65;744.70;;;20.30;52.00;;;;;;4817423;54;21480;-31
2020/12/29 17:03:50;;;;;;;827.67;737.92;;;20.20;51.90;;;;;;4808670;54;21007;-26
2020/12/29 17:08:51;;;;;;;834.45;744.22;;;20.20;51.80;;;;;;4794252;58;21553;-23
2020/12/29 17:13:51;;;;;;;832.42;741.80;;;20.20;51.80;;;;;;4807058;54;21068;-27
2020/12/29 17:18:53;;;;;;;815.42;726.87;;;20.20;51.80;;;;;;4806427;54;21166;-28
2020/12/29 17:23:55;;;;;;;820.67;731.85;;;20.20;51.70;;;;;;4814525;54;21135;-30
2020/12/29 17:28:57;;;;;;;816.90;728.33;;;20.10;51.60;;;;;;4827084;54;21090;-30
2020/12/29 17:33:58;;;;;;;823.95;734.70;;;20.10;51.50;;;;;;4795685;55;21000;-27
2020/12/29 17:38:59;;;;;;;815.90;728.12;;;20.10;51.70;;;;;;4797067;54;21458;-27
2020/12/29 17:44:00;;;;;;;810.72;723.00;;;20.10;51.60;;;;;;4844449;54;21011;-25
2020/12/29 17:49:01;;;;;;;810.28;722.90;;;20.10;51.50;;;;;;4798761;54;21007;-32
2020/12/29 17:54:02;;;;;;;803.90;718.15;;;20.10;52.20;;;;;;4795051;54;22105;-29
2020/12/29 17:59:03;;;;;;;793.33;708.42;;;20.10;51.40;;;;;;4802237;54;21089;-23
2020/12/29 18:04:04;;;;;;;798.75;713.53;;;20.00;51.20;;;;;;4803357;54;21018;-29
2020/12/29 18:09:05;;;;;;;795.47;710.05;;;20.00;51.30;;;;;;4795029;58;21663;-24
2020/12/29 18:14:06;;;;;;;794.10;709.28;;;20.00;51.30;;;;;;4802114;54;21023;-27
2020/12/29 18:19:07;;;;;;;795.15;710.25;;;20.00;51.10;;;;;;4900551;54;21442;-28
2020/12/29 18:24:08;;;;;;;791.90;707.78;;;20.00;51.20;;;;;;4795625;54;21059;-29
2020/12/29 18:29:09;;;;;;;783.15;700.22;;;20.00;51.40;;;;;;4876838;54;21537;-25
2020/12/29 18:34:10;;;;;;;774.75;692.75;;;20.00;51.30;;;;;;4795104;58;21050;-24
2020/12/29 18:39:13;;;;;;;772.90;691.08;;;20.00;51.10;;;;;;4805635;54;21502;-27
2020/12/29 18:44:19;;;;;;;766.95;686.08;;;20.00;51.30;;;;;;4833682;54;21465;-25
2020/12/29 18:49:20;;;;;;;773.47;691.62;;;20.00;50.90;;;;;;4830905;54;21070;-20
2020/12/29 18:54:20;;;;;;;770.78;689.22;;;20.00;51.10;;;;;;4819413;54;21453;-26
2020/12/29 18:59:21;;;;;;;765.50;684.72;;;20.00;51.10;;;;;;4795434;55;21003;-29
2020/12/29 19:04:22;;;;;;;751.65;672.42;;;20.00;51.20;;;;;;4848600;54;21335;-29
2020/12/29 19:09:23;;;;;;;755.35;675.33;;;20.00;50.70;;;;;;4873495;54;21099;-30
2020/12/29 19:14:24;;;;;;;749.40;670.78;;;20.00;50.80;;;;;;4802400;54;21110;-32
2020/12/29 19:19:25;;;;;;;749.78;670.80;;;20.00;50.80;;;;;;4842343;54;22095;-32
2020/12/29 19:24:30;;;;;;;741.78;663.85;;;19.90;50.70;;;;;;4821833;54;21000;-26
2020/12/29 19:29:31;;;;;;;740.90;662.62;;;19.90;50.70;;;;;;4838089;54;20995;-22
2020/12/29 19:34:32;;;;;;;709.78;634.95;;;19.90;50.70;;;;;;4851922;54;21007;-21
2020/12/29 19:39:33;;;;;;;726.63;650.08;;;20.00;50.70;;;;;;4831706;54;21006;-27
2020/12/29 19:44:34;;;;;;;722.17;646.37;;;19.90;50.70;;;;;;4795204;55;20995;-26
2020/12/29 19:49:34;;;;;;;729.00;653.40;;;19.90;50.70;;;;;;4795850;58;21469;-31
2020/12/29 19:54:39;;;;;;;720.47;645.15;;;19.90;50.60;;;;;;4816853;54;21039;-24
2020/12/29 19:59:40;;;;;;;725.60;650.17;;;19.90;50.70;;;;;;4837563;54;21078;-33
2020/12/29 20:04:41;;;;;;;718.55;643.55;;;19.90;50.60;;;;;;4864118;54;21537;-23
2020/12/29 20:09:42;;;;;;;706.78;633.30;;;19.90;50.60;;;;;;4810969;54;21541;-22
2020/12/29 20:14:43;;;;;;;700.70;627.50;;;19.90;50.40;;;;;;4819660;54;21030;-22
2020/12/29 20:19:44;;;;;;;690.05;618.25;;;19.90;50.40;;;;;;4795287;58;21599;-26
2020/12/29 20:24:45;;;;;;;683.72;611.75;;;19.90;50.40;;;;;;4819691;54;21027;-26
2020/12/29 20:29:46;;;;;;;692.75;620.58;;;19.90;50.30;;;;;;4803464;54;21651;-25
2020/12/29 20:34:47;;;;;;;689.13;617.67;;;19.90;50.50;;;;;;4811360;54;21399;-25
2020/12/29 20:39:48;;;;;;;678.47;607.15;;;19.90;50.30;;;;;;4823109;54;21027;-25
2020/12/29 20:44:48;;;;;;;675.80;604.55;;;19.90;50.40;;;;;;4821816;54;21099;-23
2020/12/29 20:49:50;;;;;;;669.65;599.20;;;19.90;50.10;;;;;;4840330;54;21026;-24
2020/12/29 20:54:52;;;;;;;660.55;591.05;;;19.90;50.30;;;;;;4799165;54;20999;-25
2020/12/29 20:59:55;;;;;;;672.50;602.60;;;19.90;50.10;;;;;;4795230;58;22067;-20
2020/12/29 21:04:56;;;;;;;658.95;590.45;;;19.90;50.10;;;;;;4808863;54;20987;-26
2020/12/29 21:09:59;;;;;;;642.37;574.90;;;19.90;50.20;;;;;;4797304;54;21040;-21
2020/12/29 21:14:59;;;;;;;642.05;575.03;;;19.90;49.90;;;;;;4816932;54;21596;-27
2020/12/29 21:20:00;;;;;;;653.20;585.05;;;19.90;50.00;;;;;;4838013;54;21015;-21
2020/12/29 21:25:01;;;;;;;630.25;564.42;;;19.90;50.00;;;;;;4808260;54;21488;-23
2020/12/29 21:30:03;;;;;;;625.72;559.72;;;19.90;49.80;;;;;;4794921;58;21078;-27
2020/12/29 21:35:05;;;;;;;627.95;562.03;;;19.90;49.80;;;;;;4824733;54;20991;-26
2020/12/29 21:40:06;;;;;;;614.90;549.72;;;19.90;49.90;;;;;;4819731;54;21078;-22
2020/12/29 21:45:07;;;;;;;626.15;560.53;;;19.80;49.80;;;;;;4796793;54;21095;-21
2020/12/29 21:50:08;;;;;;;613.40;548.97;;;19.90;49.80;;;;;;4802297;54;21019;-27
2020/12/29 21:55:09;;;;;;;603.12;539.72;;;19.90;49.80;;;;;;4858754;54;21015;-28
2020/12/29 22:00:09;;;;;;;603.33;539.45;;;19.80;49.80;;;;;;4825870;54;21075;-30
2020/12/29 22:05:12;;;;;;;597.87;534.87;;;19.80;49.60;;;;;;4807921;54;21067;-25
2020/12/29 22:10:14;;;;;;;601.85;539.10;;;19.80;49.50;;;;;;4809365;54;21513;-28
2020/12/29 22:15:15;;;;;;;598.45;535.80;;;19.80;49.60;;;;;;4802877;54;21006;-23
2020/12/29 22:20:16;;;;;;;586.83;524.90;;;19.80;49.50;;;;;;4794786;58;21117;-20
2020/12/29 22:25:17;;;;;;;574.80;514.42;;;19.80;49.40;;;;;;4830699;54;20995;-21
2020/12/29 22:30:18;;;;;;;573.50;512.88;;;19.80;49.40;;;;;;4831047;54;21546;-28
2020/12/29 22:35:19;;;;;;;570.08;510.17;;;19.80;49.40;;;;;;4800941;54;21071;-26
2020/12/29 22:40:19;;;;;;;568.08;507.62;;;19.80;49.90;;;;;;4817379;54;21059;-26
2020/12/29 22:45:20;;;;;;;553.03;494.48;;;19.80;49.50;;;;;;4795488;58;21004;-27
2020/12/29 22:50:21;;;;;;;554.78;495.77;;;19.80;49.50;;;;;;4801081;54;21035;-21
2020/12/29 22:55:22;;;;;;;545.15;486.52;;;19.80;49.40;;;;;;4819063;54;20987;-31
2020/12/29 23:00:24;;;;;;;546.55;488.42;;;19.80;49.40;;;;;;4795192;58;21063;-20
2020/12/29 23:05:25;;;;;;;542.78;485.08;;;19.80;49.30;;;;;;4795172;58;21521;-30
2020/12/29 23:10:26;;;;;;;536.12;478.60;;;19.80;49.40;;;;;;4802911;54;21031;-21
2020/12/29 23:15:27;;;;;;;540.83;483.17;;;19.80;49.90;;;;;;4807416;54;21047;-28
2020/12/29 23:20:27;;;;;;;533.65;476.50;;;19.80;49.30;;;;;;4808443;54;21003;-27
2020/12/29 23:25:28;;;;;;;507.98;452.73;;;19.80;49.40;;;;;;4796626;54;21584;-31
2020/12/29 23:30:29;;;;;;;520.15;464.33;;;19.80;49.10;;;;;;4795174;58;21035;-29
2020/12/29 23:35:30;;;;;;;516.72;461.02;;;19.80;49.40;;;;;;4853705;54;21517;-24
2020/12/29 23:40:32;;;;;;;510.90;455.95;;;19.80;49.20;;;;;;4795109;55;20992;-29
2020/12/29 23:45:33;;;;;;;495.83;441.67;;;19.80;49.20;;;;;;4827649;54;21055;-24
2020/12/29 23:50:34;;;;;;;493.13;439.55;;;19.80;49.20;;;;;;4870458;54;21011;-21
2020/12/29 23:55:35;;;;;;;494.65;441.10;;;19.80;49.20;;;;;;4807911;54;21058;-22
